Latest Weather Observations for Nowra

IDN60801

Issued at 5:32 pm EST Tuesday 24 May 2016 (issued every 30 minutes, with the page automatically refreshed every 10 minutes)

About weather observations | Map of weather stations | Latest weather observations for NSW | Other Formats
Station Details ID: 068072 Name: NOWRA RAN AIR STATION AWS Lat: -34.95 Lon: 150.54 Height: 109.0 m
Data from the previous 72 hours. | See also: Recent months at Nowra
Date/Time
EST
Temp
°C
App
Temp
°C
Dew
Point
Rel
Hum
%
Delta-T
°C
Wind Press
QNH
hPa
Press
MSL
hPa
Rain
since 9 am
mm
Dir
 
Spd
km/h
Gust
km/h
Spd
kts
Gust
kts
24/05:00pm 15.3 10.7 3.5 45 5.4 WNW 17 26 9 14 1014.1 - 0.0
24/04:30pm 16.5 11.2 2.9 40 6.2 WNW 20 30 11 16 1014.0 - 0.0
24/04:00pm 17.4 13.1 3.3 39 6.6 WNW 15 22 8 12 1013.9 - 0.0
24/03:30pm 17.8 11.7 2.9 37 6.9 WNW 24 39 13 21 1013.7 - 0.0
24/03:00pm 18.4 12.2 2.3 34 7.4 WNW 24 37 13 20 1013.7 1013.6 0.0
24/02:30pm 18.6 11.7 2.4 34 7.5 W 28 43 15 23 1013.6 - 0.0
24/02:00pm 19.0 12.8 2.4 33 7.7 WNW 24 35 13 19 1013.4 - 0.0
24/01:30pm 18.8 12.2 2.2 33 7.6 WNW 26 37 14 20 1013.3 - 0.0
24/01:00pm 18.6 12.7 2.0 33 7.6 W 22 32 12 17 1014.0 - 0.0
24/12:30pm 18.3 12.9 2.6 35 7.2 W 20 32 11 17 1014.4 - 0.0
24/12:00pm 17.8 12.5 2.9 37 6.9 WNW 20 28 11 15 1014.9 1014.8 0.0
24/11:30am 17.2 11.5 3.1 39 6.5 NW 22 32 12 17 1015.5 - 0.0
24/11:00am 16.6 11.6 3.6 42 6.0 WNW 19 33 10 18 1016.1 - 0.0
24/10:30am 16.2 10.3 3.9 44 5.7 WNW 24 35 13 19 1016.5 - 0.0
24/10:00am 15.5 9.6 3.9 46 5.4 WNW 24 33 13 18 1016.8 - 0.0
24/09:30am 15.1 10.2 4.2 48 5.1 WNW 19 28 10 15 1017.0 - 0.0
24/09:00am 14.3 9.2 4.3 51 4.6 W 20 28 11 15 1017.1 1017.1 0.0
24/08:30am 13.5 8.5 4.4 54 4.2 WNW 20 30 11 16 1017.2 - 0.0
24/08:00am 12.7 7.9 4.7 58 3.7 NW 19 28 10 15 1017.2 - 0.0
24/07:30am 11.8 7.4 4.8 62 3.2 NW 17 26 9 14 1016.9 - 0.0
24/07:00am 11.2 6.5 5.1 66 2.8 NW 19 26 10 14 1016.5 - 0.0
24/06:30am 10.7 5.7 4.8 67 2.7 NW 20 26 11 14 1016.5 - 0.0
24/06:00am 10.6 5.8 4.7 67 2.7 NW 19 24 10 13 1016.3 1016.2 0.0
24/05:30am 10.5 6.0 4.2 65 2.8 NW 17 20 9 11 1016.4 - 0.0
24/05:00am 10.7 6.6 4.2 64 2.9 NW 15 19 8 10 1016.4 - 0.0
24/04:30am 11.0 5.8 3.8 61 3.2 WNW 20 28 11 15 1016.5 - 0.0
24/04:00am 11.3 5.3 3.6 59 3.4 WNW 24 35 13 19 1016.6 - 0.0
24/03:30am 11.3 5.7 3.6 59 3.4 WNW 22 32 12 17 1016.7 - 0.0
24/03:00am 11.1 5.9 3.4 59 3.4 WNW 20 32 11 17 1016.9 1016.9 0.0
24/02:30am 10.8 6.5 3.1 59 3.4 NW 15 22 8 12 1017.2 - 0.0
24/02:00am 11.4 7.8 2.9 56 3.7 NNW 11 19 6 10 1017.3 - 0.0
24/01:30am 11.4 6.7 2.9 56 3.7 WNW 17 26 9 14 1017.3 - 0.0
24/01:00am 11.8 5.4 3.3 56 3.8 WNW 26 35 14 19 1017.0 - 0.0
24/12:30am 11.7 4.9 3.2 56 3.8 WNW 28 35 15 19 1017.1 - 0.0
24/12:00am 11.9 4.7 3.2 55 3.8 WNW 30 37 16 20 1017.3 1017.3 0.0
 
Date/Time
EST
Temp
°C
App
Temp
°C
Dew
Point
Rel
Hum
%
Delta-T
°C
Wind Press
QNH
hPa
Press
MSL
hPa
Rain
since 9 am
mm
Dir
 
Spd
km/h
Gust
km/h
Spd
kts
Gust
kts
23/11:30pm 11.7 6.1 3.5 57 3.6 WNW 22 32 12 17 1017.6 - 0.0
23/11:00pm 11.3 7.4 3.3 58 3.5 NW 13 19 7 10 1017.4 - 0.0
23/10:30pm 11.6 7.2 2.9 55 3.8 WNW 15 20 8 11 1017.3 - 0.0
23/10:00pm 12.1 8.1 3.1 54 4.0 WNW 13 17 7 9 1017.3 - 0.0
23/09:30pm 12.8 7.7 2.9 51 4.4 WNW 19 24 10 13 1017.2 - 0.0
23/09:00pm 13.3 8.0 2.8 49 4.7 WNW 20 26 11 14 1017.0 1017.0 0.0
23/08:30pm 13.7 8.0 2.9 48 4.8 WNW 22 32 12 17 1016.9 - 0.0
23/08:00pm 14.1 8.4 2.7 46 5.1 W 22 30 12 16 1016.7 - 0.0
23/07:30pm 14.2 8.7 2.1 44 5.3 W 20 30 11 16 1016.4 - 0.0
23/07:00pm 15.0 8.8 1.9 41 5.8 W 24 39 13 21 1016.1 - 0.0
23/06:30pm 15.5 8.8 1.6 39 6.1 W 26 35 14 19 1015.6 - 0.0
23/06:00pm 15.8 9.9 1.5 38 6.3 WNW 22 33 12 18 1015.2 1015.1 0.0
23/05:30pm 16.2 9.0 0.7 35 6.8 W 28 39 15 21 1014.5 - 0.0
23/05:00pm 17.0 8.8 0.6 33 7.2 W 33 43 18 23 1013.9 - 0.0
23/04:30pm 18.0 10.8 0.6 31 7.7 W 28 46 15 25 1013.6 - 0.0
23/04:00pm 18.7 11.1 0.3 29 8.1 WNW 30 43 16 23 1013.1 - 0.0
23/03:30pm 19.3 11.9 -0.7 26 8.7 W 28 46 15 25 1013.0 - 0.0
23/03:00pm 20.0 10.0 -1.7 23 9.3 W 41 59 22 32 1012.4 1012.4 0.0
23/02:30pm 20.8 10.8 -1.7 22 9.7 W 41 59 22 32 1012.1 - 0.0
23/02:00pm 21.2 11.7 -0.7 23 9.7 W 39 61 21 33 1011.8 - 0.0
23/01:30pm 21.3 12.7 -0.1 24 9.6 W 35 54 19 29 1011.5 - 0.0
23/01:00pm 21.8 13.6 2.5 28 9.1 WNW 35 56 19 30 1011.5 - 0.0
23/12:30pm 22.1 14.6 3.7 30 8.9 W 32 50 17 27 1011.5 - 0.0
23/12:00pm 22.4 17.8 8.1 40 7.6 W 22 33 12 18 1011.5 1011.5 0.0
23/11:30am 21.4 15.5 10.3 49 6.1 W 32 50 17 27 1012.1 - 0.0
23/11:06am 21.3 16.2 10.5 50 5.9 WNW 28 46 15 25 1012.4 - 0.0
23/11:00am 21.8 16.8 10.9 50 6.0 WNW 28 37 15 20 1012.6 - 0.0
23/10:37am 21.0 14.1 10.2 50 5.9 WNW 37 56 20 30 1012.8 - 0.0
23/10:30am 20.9 14.7 10.1 50 5.9 W 33 48 18 26 1012.8 - 0.0
23/10:00am 22.5 18.5 10.6 47 6.6 NW 22 48 12 26 1011.9 - 0.0
23/09:47am 21.9 16.7 10.1 47 6.4 NW 28 46 15 25 1012.0 - 0.0
23/09:30am 22.5 19.3 10.0 45 6.8 WNW 17 26 9 14 1011.9 - 0.0
23/09:00am 22.0 17.8 9.9 46 6.6 WNW 22 35 12 19 1011.8 1011.8 0.0
23/08:49am 22.1 16.7 9.6 45 6.8 WNW 28 48 15 26 1011.8 - 0.0
23/08:30am 21.5 16.2 10.0 48 6.3 WNW 28 43 15 23 1011.7 - 0.0
23/08:00am 18.4 17.6 13.0 71 3.1 NNW 9 13 5 7 1011.7 - 0.0
23/07:30am 14.3 15.5 13.7 96 0.3 CALM 0 0 0 0 1012.0 - 0.0
23/07:00am 12.2 12.5 10.8 91 0.7 CALM 0 6 0 3 1012.2 - 0.0
23/06:30am 14.2 13.0 11.5 84 1.4 N 9 13 5 7 1012.2 - 0.0
23/06:00am 16.2 15.2 12.4 78 2.1 N 9 17 5 9 1012.3 - 0.0
23/05:30am 14.0 13.4 12.4 90 0.9 NNE 7 9 4 5 1012.7 - 0.0
23/05:00am 11.3 9.4 10.5 95 0.4 N 11 13 6 7 1013.0 - 0.0
23/04:30am 11.2 9.5 9.8 91 0.7 N 9 11 5 6 1013.4 - 0.0
23/04:00am 12.6 12.7 10.1 85 1.3 CALM 0 0 0 0 1013.9 - 0.0
23/03:30am 12.9 13.0 10.1 83 1.4 CALM 0 0 0 0 1014.1 - 0.0
23/03:00am 13.2 11.9 10.0 81 1.7 NNW 7 9 4 5 1014.7 1014.6 0.0
23/02:30am 14.7 12.5 10.9 78 2.0 WNW 13 15 7 8 1015.2 - 0.0
23/02:00am 13.3 11.3 10.3 82 1.6 WNW 11 13 6 7 1015.5 - 0.0
23/01:30am 14.5 13.2 9.9 74 2.4 NW 7 11 4 6 1015.8 - 0.0
23/01:00am 15.3 12.6 10.3 72 2.6 NW 15 17 8 9 1016.1 - 0.0
23/12:30am 14.3 12.0 10.3 77 2.1 NW 13 15 7 8 1016.4 - 0.0
23/12:00am 13.4 11.3 9.8 79 1.9 W 11 15 6 8 1016.8 1016.8 0.0
 
Date/Time
EST
Temp
°C
App
Temp
°C
Dew
Point
Rel
Hum
%
Delta-T
°C
Wind Press
QNH
hPa
Press
MSL
hPa
Rain
since 9 am
mm
Dir
 
Spd
km/h
Gust
km/h
Spd
kts
Gust
kts
22/11:30pm 15.6 13.2 9.9 69 3.0 WNW 13 15 7 8 1017.1 - 0.0
22/11:00pm 15.7 13.0 10.5 71 2.8 WNW 15 19 8 10 1017.1 - 0.0
22/10:30pm 15.6 13.2 11.4 76 2.3 WNW 15 17 8 9 1017.4 - 0.0
22/10:00pm 14.9 13.2 12.4 85 1.4 NW 13 15 7 8 1017.8 - 0.0
22/09:30pm 13.8 12.9 13.6 99 0.1 NW 11 15 6 8 1018.2 - 0.0
22/09:00pm 13.1 14.1 13.1 100 0.0 CALM 0 0 0 0 1018.4 1018.4 0.0
22/08:30pm 13.0 13.9 12.8 99 0.1 CALM 0 0 0 0 1018.4 - 0.0
22/08:00pm 14.1 13.7 14.1 100 0.0 NW 9 11 5 6 1018.4 - 0.0
22/07:30pm 13.0 13.9 12.8 99 0.1 CALM 0 0 0 0 1018.6 - 0.0
22/07:00pm 13.9 15.1 13.7 99 0.1 CALM 0 0 0 0 1018.4 - 0.0
22/06:30pm 13.5 14.5 13.3 99 0.1 CALM 0 0 0 0 1018.5 - 0.0
22/06:00pm 13.4 13.0 12.5 94 0.5 WSW 6 7 3 4 1018.4 1018.4 0.0
22/05:30pm 15.0 14.9 13.4 90 0.9 WSW 6 7 3 4 1018.2 - 0.0
22/05:00pm 18.5 18.9 14.8 79 2.2 S 6 7 3 4 1018.0 - 0.0
22/04:30pm 20.3 20.2 14.9 71 3.2 ESE 9 11 5 6 1018.0 - 0.0
22/04:00pm 21.9 21.3 14.5 63 4.4 NE 11 15 6 8 1018.3 - 0.0
22/03:30pm 22.6 21.8 15.0 62 4.5 NE 13 19 7 10 1018.6 - 0.0
22/03:00pm 22.8 21.0 13.3 55 5.5 NE 15 20 8 11 1018.6 1018.6 0.0
22/02:30pm 23.8 21.9 11.8 47 6.8 NNE 13 20 7 11 1018.7 - 0.0
22/02:00pm 24.1 22.6 10.7 43 7.5 NNE 9 13 5 7 1019.0 - 0.0
22/01:30pm 23.7 22.2 10.4 43 7.4 NNW 9 13 5 7 1019.6 - 0.0
22/01:00pm 23.7 22.2 10.4 43 7.4 N 9 15 5 8 1019.8 - 0.0
22/12:30pm 22.9 20.9 10.0 44 7.1 N 11 17 6 9 1020.3 - 0.0
22/12:00pm 22.1 19.8 10.6 48 6.3 N 13 17 7 9 1021.0 1021.0 0.0
22/11:30am 21.8 20.6 11.5 52 5.8 N 9 13 5 7 1021.6 - 0.0
22/11:00am 20.7 19.4 11.3 55 5.2 N 9 13 5 7 1022.4 - 0.0
22/10:30am 20.1 18.4 12.3 61 4.4 NNW 13 19 7 10 1022.8 - 0.0
22/10:00am 19.2 18.3 12.5 65 3.8 NNW 9 15 5 8 1023.0 - 0.0
22/09:30am 18.1 16.5 12.8 71 3.0 NW 13 17 7 9 1023.3 - 0.0
22/09:00am 16.8 15.4 13.5 81 1.9 WNW 13 15 7 8 1023.5 1023.4 0.0
22/08:30am 15.2 14.5 13.1 87 1.2 WNW 9 13 5 7 1023.3 - 0.0
22/08:00am 14.2 13.0 12.9 92 0.7 WNW 11 15 6 8 1023.1 - 0.0
22/07:30am 12.0 10.9 11.8 99 0.1 NW 9 11 5 6 1022.9 - 0.0
22/07:00am 11.9 9.6 11.7 99 0.1 NW 15 17 8 9 1023.0 - 0.0
22/06:30am 12.0 9.8 12.0 100 0.0 NW 15 17 8 9 1023.3 - 0.0
22/06:00am 10.8 10.3 10.6 99 0.1 NW 4 11 2 6 1023.0 1023.0 0.0
22/05:30am 11.9 12.1 11.7 99 0.1 NW 2 6 1 3 1022.9 - 0.0
22/05:00am 12.2 11.2 12.2 100 0.0 WNW 9 11 5 6 1022.7 - 0.0
22/04:30am 12.3 10.9 12.3 100 0.0 NW 11 13 6 7 1022.7 - 0.0
22/04:00am 12.0 11.5 12.0 100 0.0 NW 6 9 3 5 1022.9 - 0.0
22/03:30am 12.2 10.8 12.2 100 0.0 NW 11 13 6 7 1023.0 - 0.0
22/03:00am 12.0 11.5 12.0 100 0.0 NW 6 11 3 6 1023.1 1023.1 0.0
22/02:30am 11.8 10.7 11.8 100 0.0 WNW 9 11 5 6 1023.3 - 0.0
22/02:00am 12.1 11.4 12.1 100 0.0 WNW 7 9 4 5 1023.4 - 0.0
22/01:30am 12.0 12.6 11.8 99 0.1 CALM 0 6 0 3 1023.4 - 0.0
22/01:00am 12.0 12.6 12.0 100 0.0 CALM 0 9 0 5 1023.7 - 0.0
22/12:30am 12.5 12.1 12.3 99 0.1 WNW 6 7 3 4 1023.8 - 0.0
22/12:00am 12.8 12.3 12.8 100 0.0 NW 7 9 4 5 1024.3 1024.2 0.0
 
Date/Time
EST
Temp
°C
App
Temp
°C
Dew
Point
Rel
Hum
%
Delta-T
°C
Wind Press
QNH
hPa
Press
MSL
hPa
Rain
since 9 am
mm
Dir
 
Spd
km/h
Gust
km/h
Spd
kts
Gust
kts
21/11:30pm 13.0 12.2 13.0 100 0.0 WNW 9 13 5 7 1024.4 - 0.0
21/11:00pm 11.3 10.5 11.1 99 0.1 WNW 6 9 3 5 1024.3 - 0.0
21/10:30pm 13.0 11.9 13.0 100 0.0 W 11 13 6 7 1024.5 - 0.0
21/10:00pm 11.6 11.7 11.4 99 0.1 NW 2 11 1 6 1024.6 - 0.0
21/09:30pm 11.4 11.8 11.2 99 0.1 CALM 0 0 0 0 1024.7 - 0.0
21/09:00pm 11.8 11.5 11.6 99 0.1 W 4 11 2 6 1024.8 1024.8 0.0
21/08:30pm 12.2 12.8 12.0 99 0.1 CALM 0 0 0 0 1024.7 - 0.0
21/08:00pm 12.8 12.3 12.6 99 0.1 W 7 9 4 5 1024.5 - 0.0
21/07:30pm 13.2 12.8 12.9 98 0.2 WNW 7 9 4 5 1024.4 - 0.0
21/07:00pm 13.0 12.5 12.1 94 0.5 WNW 6 7 3 4 1024.3 - 0.0
21/06:30pm 13.6 14.4 12.5 93 0.6 CALM 0 0 0 0 1023.9 - 0.0
21/06:00pm 13.1 13.7 11.8 92 0.7 CALM 0 0 0 0 1024.0 1023.9 0.0

Other Formats:

Comma delimited format used in spreadsheet applications
http://www.bom.gov.au/fwo/IDN60801/IDN60801.94750.axf

JavaScript Object Notation format (JSON) in row-major order
http://www.bom.gov.au/fwo/IDN60801/IDN60801.94750.json